ADDS METAR Data INFO
IDs: Format: Raw Decoded Include TAF

Data at: 1612 UTC 14 Aug 2018

KCKC 141555Z AUTO 00000KT 10SM CLR 21/12 A2995 RMK AO2
KCKC 141535Z AUTO 33005KT 10SM CLR 21/13 A2995 RMK AO2
KCKC 141515Z AUTO 29003KT 10SM SCT021 20/13 A2995 RMK AO2
KCKC 141455Z AUTO 29003KT 10SM SCT021 20/13 A2996 RMK AO2
KCKC 141435Z AUTO 30004KT 10SM CLR 19/13 A2995 RMK AO2
KCKC 141415Z AUTO 33004KT 10SM CLR 19/13 A2994 RMK AO2
KCKC 141355Z AUTO 35008KT 10SM SCT016 18/13 A2992 RMK AO2
KCKC 141335Z AUTO 32005KT 10SM SCT016 18/13 A2993 RMK AO2
KCKC 141315Z AUTO 36004KT 10SM SCT016 18/13 A2992 RMK AO2
KCKC 141255Z AUTO 33003KT 10SM CLR 18/13 A2993 RMK AO2
KCKC 141235Z AUTO 00000KT 10SM CLR 17/13 A2992 RMK AO2
KCKC 141215Z AUTO 31003KT 10SM CLR 17/13 A2991 RMK AO2
KCKC 141156Z AUTO 31005KT 10SM CLR 17/13 A2991 RMK AO2
KCKC 141135Z AUTO 31007KT 269V339 10SM CLR 17/13 A2991 RMK AO2
KCKC 141115Z AUTO 30003KT 10SM CLR 17/13 A2990 RMK AO2
KCKC 141055Z AUTO 31006KT 10SM CLR 17/13 A2991 RMK AO2
KCKC 141035Z AUTO 30004KT 10SM CLR 17/13 A2991 RMK AO2
KCKC 141015Z AUTO 30004KT 10SM CLR 17/13 A2991 RMK AO2
KCKC 140955Z AUTO 32005KT 10SM CLR 17/13 A2991 RMK AO2
KCKC 140935Z AUTO 31004KT 10SM CLR 18/14 A2990 RMK AO2
KCKC 140915Z AUTO 32004KT 10SM CLR 18/14 A2990 RMK AO2
KCKC 140855Z AUTO 00000KT 10SM CLR 19/16 A2990 RMK AO2
KCKC 140835Z AUTO 30003KT 10SM CLR 19/16 A2991 RMK AO2
KCKC 140815Z AUTO 29003KT 10SM SCT037 19/16 A2990 RMK AO2
KCKC 140755Z AUTO 27003KT 10SM CLR 19/16 A2991 RMK AO2
KCKC 140735Z AUTO 26003KT 10SM CLR 19/16 A2991 RMK AO2
KCKC 140715Z AUTO 00000KT 10SM CLR 20/16 A2991 RMK AO2
KCKC 140655Z AUTO 25003KT 10SM CLR 19/16 A2991 RMK AO2
KCKC 140635Z AUTO 25003KT 10SM CLR 19/16 A2991 RMK AO2
KCKC 140615Z AUTO 00000KT 10SM CLR 21/16 A2990 RMK AO2
KCKC 140555Z AUTO 25003KT 10SM CLR 21/16 A2991 RMK AO2
KCKC 140535Z AUTO 24003KT 10SM CLR 21/16 A2991 RMK AO2
KCKC 140515Z AUTO 23004KT 10SM SCT050 21/16 A2991 RMK AO2
KCKC 140455Z AUTO 23003KT 10SM SCT050 21/16 A2991 RMK AO2
KCKC 140435Z AUTO 22004KT 10SM CLR 22/16 A2992 RMK AO2
KCKC 140415Z AUTO 00000KT 10SM CLR 22/16 A2992 RMK AO2
KCKC 140355Z AUTO 22003KT 10SM SCT060 22/16 A2992 RMK AO2
KCKC 140335Z AUTO 22004KT 10SM SCT060 23/16 A2992 RMK AO2
KCKC 140315Z AUTO 22004KT 10SM SCT060 23/16 A2992 RMK AO2
KCKC 140255Z AUTO 22003KT 10SM CLR 22/17 A2992 RMK AO2
KCKC 140235Z AUTO 21003KT 10SM CLR 22/17 A2992 RMK AO2
KCKC 140215Z AUTO 00000KT 10SM CLR 22/17 A2992 RMK AO2
KCKC 140155Z AUTO 00000KT 10SM CLR 23/17 A2992 RMK AO2
KCKC 140135Z AUTO 21003KT 10SM CLR 23/17 A2992 RMK AO2
KCKC 140115Z AUTO 21004KT 10SM CLR 24/17 A2992 RMK AO2
KCKC 140055Z AUTO 20005KT 7SM CLR 24/17 A2992 RMK AO2
KCKC 140035Z AUTO 20006KT 5SM HZ CLR 24/17 A2991 RMK AO2
KCKC 140015Z AUTO 19007KT 5SM HZ CLR 24/17 A2991 RMK AO2
KCKC 132355Z AUTO 19007KT 159V239 5SM HZ CLR 25/17 A2992 RMK AO2
KCKC 132335Z AUTO 19009KT 7SM CLR 25/17 A2992 RMK AO2
KCKC 132315Z AUTO 20008KT 5SM HZ CLR 25/17 A2992 RMK AO2
KCKC 132255Z AUTO 20008KT 5SM HZ CLR 25/17 A2992 RMK AO2
KCKC 132235Z AUTO 19008G16KT 159V229 5SM HZ CLR 25/17 A2992 RMK AO2
KCKC 132215Z AUTO 20008G15KT 5SM HZ CLR 25/17 A2993 RMK AO2
KCKC 132155Z AUTO 20008G16KT 5SM HZ CLR 26/17 A2993 RMK AO2
KCKC 132135Z AUTO 19011G18KT 7SM CLR 26/17 A2993 RMK AO2
KCKC 132115Z AUTO 20008KT 179V249 5SM HZ CLR 26/17 A2994 RMK AO2
KCKC 132055Z AUTO 20009G17KT 169V229 7SM CLR 26/17 A2995 RMK AO2
KCKC 132035Z AUTO 20011G17KT 5SM HZ CLR 26/17 A2995 RMK AO2
KCKC 132015Z AUTO 18006KT 5SM HZ CLR 26/18 A2996 RMK AO2
KCKC 131955Z AUTO 19008G14KT 159V239 5SM HZ CLR 25/17 A2997 RMK AO2
KCKC 131935Z AUTO 20008G17KT 159V229 5SM HZ CLR 26/17 A2997 RMK AO2
KCKC 131915Z AUTO 20005G16KT 5SM HZ CLR 25/18 A2997 RMK AO2
KCKC 131855Z AUTO 19007G14KT 159V249 7SM CLR 25/18 A2998 RMK AO2
KCKC 131835Z AUTO 20008KT 179V239 7SM CLR 25/18 A2998 RMK AO2
KCKC 131815Z AUTO 19009KT 7SM CLR 24/18 A2998 RMK AO2
KCKC 131755Z AUTO 18004KT 5SM HZ CLR 25/18 A2999 RMK AO2
KCKC 131735Z AUTO 19007KT 169V229 7SM CLR 25/18 A2999 RMK AO2
KCKC 131716Z AUTO 20008KT 7SM CLR 25/18 A3000 RMK AO2
KCKC 131655Z AUTO 18007KT 7SM CLR 24/18 A3001 RMK AO2
KCKC 131635Z AUTO 20006KT 5SM HZ CLR 24/17 A3001 RMK AO2
KCKC 131615Z AUTO 21006KT 5SM HZ CLR 24/18 A3001 RMK AO2
KCKC 131555Z AUTO 19006KT 7SM CLR 24/17 A3002 RMK AO2
KCKC 131535Z AUTO 20006KT 5SM HZ CLR 24/17 A3002 RMK AO2
KCKC 131515Z AUTO 20005KT 7SM CLR 23/17 A3003 RMK AO2
KCKC 131455Z AUTO 19005KT 7SM CLR 23/18 A3003 RMK AO2
KCKC 131435Z AUTO 20003KT 7SM CLR 22/17 A3004 RMK AO2
KCKC 131415Z AUTO 21003KT 7SM CLR 22/17 A3004 RMK AO2
KCKC 131355Z AUTO 20005KT 7SM CLR 21/17 A3005 RMK AO2
KCKC 131335Z AUTO 20004KT 7SM CLR 20/17 A3006 RMK AO2
KCKC 131315Z AUTO 20005KT 5SM HZ CLR 20/17 A3005 RMK AO2
KCKC 131255Z AUTO 20003KT 5SM HZ CLR 19/17 A3006 RMK AO2
KCKC 131235Z AUTO 21003KT 4SM BR CLR 19/17 A3006 RMK AO2
KCKC 131215Z AUTO 20003KT 3SM BR CLR 18/16 A3006 RMK AO2
KCKC 131155Z AUTO 20003KT 4SM BR CLR 17/16 A3006 RMK AO2
KCKC 131135Z AUTO 00000KT 1SM BR VV007 17/15 A3007 RMK AO2
KCKC 131115Z AUTO 20003KT 5SM BR CLR 17/15 A3007 RMK AO2
KCKC 131055Z AUTO 23003KT 4SM BR CLR 17/15 A3007 RMK AO2
KCKC 131035Z AUTO 00000KT 1 1/2SM BR VV007 17/15 A3008 RMK AO2 VIS 1/2V5
KCKC 131015Z AUTO 00000KT 3SM BR CLR 17/14 A3008 RMK AO2
KCKC 130955Z AUTO 25003KT 5SM BR CLR 16/13 A3008 RMK AO2
KCKC 130935Z AUTO 00000KT 2SM BR CLR 16/14 A3008 RMK AO2 VIS 1 1/4V4
KCKC 130915Z AUTO 00000KT 5SM BR CLR 16/14 A3008 RMK AO2
KCKC 130855Z AUTO 00000KT 4SM BR CLR 14/12 A3008 RMK AO2
KCKC 130835Z AUTO 00000KT 3SM BR CLR 14/12 A3007 RMK AO2
KCKC 130815Z AUTO 00000KT 4SM BR CLR 15/13 A3007 RMK AO2
KCKC 130755Z AUTO 00000KT 7SM CLR 15/12 A3006 RMK AO2
KCKC 130735Z AUTO 00000KT 5SM BR CLR 16/13 A3006 RMK AO2
KCKC 130715Z AUTO 00000KT 5SM BR CLR 16/14 A3007 RMK AO2
KCKC 130655Z AUTO 16003KT 7SM CLR 17/15 A3008 RMK AO2
KCKC 130635Z AUTO 00000KT 7SM CLR 18/16 A3008 RMK AO2
KCKC 130615Z AUTO 00000KT 7SM CLR 18/16 A3009 RMK AO2
KCKC 130555Z AUTO 00000KT 7SM CLR 18/14 A3010 RMK AO2
KCKC 130535Z AUTO 00000KT 7SM CLR 17/15 A3010 RMK AO2
KCKC 130515Z AUTO 00000KT 7SM CLR 17/14 A3010 RMK AO2
KCKC 130455Z AUTO 00000KT 7SM CLR 18/16 A3010 RMK AO2
KCKC 130435Z AUTO 00000KT 7SM CLR 19/16 A3010 RMK AO2
KCKC 130415Z AUTO 00000KT 7SM CLR 19/16 A3010 RMK AO2